sensor_id;sensor_type;location;lat;lon;timestamp;pressure;altitude;pressure_sealevel;temperature;humidity
53647;BME280;39550;52.230;5.194;2023-04-30T00:00:38;102280.84;;;11.58;67.36
53647;BME280;39550;52.230;5.194;2023-04-30T00:03:04;102271.38;;;11.57;67.66
53647;BME280;39550;52.230;5.194;2023-04-30T00:05:29;102277.38;;;11.56;67.33
53647;BME280;39550;52.230;5.194;2023-04-30T00:07:54;102275.59;;;11.55;67.54
53647;BME280;39550;52.230;5.194;2023-04-30T00:10:20;102283.31;;;11.54;67.69
53647;BME280;39550;52.230;5.194;2023-04-30T00:12:45;102278.13;;;11.52;67.81
53647;BME280;39550;52.230;5.194;2023-04-30T00:15:10;102283.25;;;11.51;67.61
53647;BME280;39550;52.230;5.194;2023-04-30T00:17:36;102275.47;;;11.49;67.71
53647;BME280;39550;52.230;5.194;2023-04-30T00:20:02;102274.53;;;11.47;67.78
53647;BME280;39550;52.230;5.194;2023-04-30T00:22:27;102278.88;;;11.48;67.64
53647;BME280;39550;52.230;5.194;2023-04-30T00:24:52;102281.38;;;11.45;67.62
53647;BME280;39550;52.230;5.194;2023-04-30T00:27:18;102277.03;;;11.44;67.38
53647;BME280;39550;52.230;5.194;2023-04-30T00:29:43;102277.03;;;11.44;67.71
53647;BME280;39550;52.230;5.194;2023-04-30T00:32:08;102282.19;;;11.44;67.70
53647;BME280;39550;52.230;5.194;2023-04-30T00:34:35;102282.97;;;11.41;67.89
53647;BME280;39550;52.230;5.194;2023-04-30T00:37:00;102284.69;;;11.41;68.08
53647;BME280;39550;52.230;5.194;2023-04-30T00:39:25;102284.66;;;11.39;67.76
53647;BME280;39550;52.230;5.194;2023-04-30T00:41:50;102288.94;;;11.39;67.87
53647;BME280;39550;52.230;5.194;2023-04-30T00:44:16;102281.94;;;11.35;68.09
53647;BME280;39550;52.230;5.194;2023-04-30T00:46:41;102294.00;;;11.36;68.04
53647;BME280;39550;52.230;5.194;2023-04-30T00:49:07;102294.78;;;11.33;68.06
53647;BME280;39550;52.230;5.194;2023-04-30T00:51:34;102298.25;;;11.34;67.85
53647;BME280;39550;52.230;5.194;2023-04-30T00:54:00;102295.66;;;11.34;67.87
53647;BME280;39550;52.230;5.194;2023-04-30T00:56:27;102296.47;;;11.31;67.61
53647;BME280;39550;52.230;5.194;2023-04-30T00:58:54;102304.16;;;11.30;67.84
53647;BME280;39550;52.230;5.194;2023-04-30T01:01:25;102298.13;;;11.29;68.10
53647;BME280;39550;52.230;5.194;2023-04-30T01:03:52;102300.66;;;11.28;68.05
53647;BME280;39550;52.230;5.194;2023-04-30T01:06:17;102299.78;;;11.27;67.98
53647;BME280;39550;52.230;5.194;2023-04-30T01:08:43;102304.06;;;11.27;67.90
53647;BME280;39550;52.230;5.194;2023-04-30T01:14:12;102309.16;;;11.23;67.73
53647;BME280;39550;52.230;5.194;2023-04-30T01:16:59;102299.66;;;11.22;68.26
53647;BME280;39550;52.230;5.194;2023-04-30T01:19:41;102309.06;;;11.20;67.83
53647;BME280;39550;52.230;5.194;2023-04-30T01:28:08;102309.84;;;11.18;68.29
53647;BME280;39550;52.230;5.194;2023-04-30T01:30:35;102301.97;;;11.13;67.90
53647;BME280;39550;52.230;5.194;2023-04-30T01:33:01;102308.88;;;11.14;68.24
53647;BME280;39550;52.230;5.194;2023-04-30T01:44:20;102303.63;;;11.11;68.09
53647;BME280;39550;52.230;5.194;2023-04-30T01:47:03;102303.63;;;11.11;68.42
53647;BME280;39550;52.230;5.194;2023-04-30T01:52:42;102314.72;;;11.08;68.25
53647;BME280;39550;52.230;5.194;2023-04-30T01:55:17;102312.97;;;11.07;68.16
53647;BME280;39550;52.230;5.194;2023-04-30T01:57:55;102309.47;;;11.05;68.18
53647;BME280;39550;52.230;5.194;2023-04-30T02:00:21;102311.19;;;11.05;68.16
53647;BME280;39550;52.230;5.194;2023-04-30T02:02:47;102317.19;;;11.04;68.59
53647;BME280;39550;52.230;5.194;2023-04-30T02:05:12;102313.66;;;11.02;67.94
53647;BME280;39550;52.230;5.194;2023-04-30T02:07:42;102311.09;;;11.02;68.40
53647;BME280;39550;52.230;5.194;2023-04-30T02:10:09;102315.34;;;11.00;68.37
53647;BME280;39550;52.230;5.194;2023-04-30T02:12:36;102313.59;;;10.99;68.32
53647;BME280;39550;52.230;5.194;2023-04-30T02:15:02;102305.69;;;10.93;68.45
53647;BME280;39550;52.230;5.194;2023-04-30T02:17:28;102319.53;;;10.96;68.37
53647;BME280;39550;52.230;5.194;2023-04-30T02:19:53;102313.41;;;10.93;68.06
53647;BME280;39550;52.230;5.194;2023-04-30T02:22:19;102316.03;;;10.94;68.05
53647;BME280;39550;52.230;5.194;2023-04-30T02:24:44;102311.69;;;10.93;68.29
53647;BME280;39550;52.230;5.194;2023-04-30T02:27:09;102321.97;;;10.92;68.53
53647;BME280;39550;52.230;5.194;2023-04-30T02:29:35;102308.13;;;10.89;68.34
53647;BME280;39550;52.230;5.194;2023-04-30T02:32:00;102316.72;;;10.88;68.66
53647;BME280;39550;52.230;5.194;2023-04-30T02:34:25;102317.53;;;10.87;68.37
53647;BME280;39550;52.230;5.194;2023-04-30T02:36:51;102316.59;;;10.85;68.05
53647;BME280;39550;52.230;5.194;2023-04-30T02:39:16;102312.31;;;10.84;68.10
53647;BME280;39550;52.230;5.194;2023-04-30T02:41:41;102313.13;;;10.83;68.67
53647;BME280;39550;52.230;5.194;2023-04-30T02:44:07;102309.59;;;10.81;68.71
53647;BME280;39550;52.230;5.194;2023-04-30T02:46:32;102307.88;;;10.80;68.62
53647;BME280;39550;52.230;5.194;2023-04-30T02:48:58;102304.38;;;10.78;68.94
53647;BME280;39550;52.230;5.194;2023-04-30T02:51:23;102307.75;;;10.77;68.40
53647;BME280;39550;52.230;5.194;2023-04-30T02:53:48;102301.66;;;10.73;68.65
53647;BME280;39550;52.230;5.194;2023-04-30T02:56:14;102308.63;;;10.76;68.75
53647;BME280;39550;52.230;5.194;2023-04-30T02:58:39;102304.28;;;10.75;68.62
53647;BME280;39550;52.230;5.194;2023-04-30T03:01:05;102302.53;;;10.74;68.91
53647;BME280;39550;52.230;5.194;2023-04-30T03:03:30;102299.03;;;10.72;68.83
53647;BME280;39550;52.230;5.194;2023-04-30T03:05:56;102294.66;;;10.69;68.69
53647;BME280;39550;52.230;5.194;2023-04-30T03:08:23;102301.53;;;10.69;68.53
53647;BME280;39550;52.230;5.194;2023-04-30T03:10:49;102299.81;;;10.69;68.52
53647;BME280;39550;52.230;5.194;2023-04-30T03:13:14;102304.97;;;10.69;68.60
53647;BME280;39550;52.230;5.194;2023-04-30T03:15:40;102305.75;;;10.67;68.24
53647;BME280;39550;52.230;5.194;2023-04-30T03:18:05;102296.28;;;10.67;68.67
53647;BME280;39550;52.230;5.194;2023-04-30T03:20:30;102290.19;;;10.64;68.57
53647;BME280;39550;52.230;5.194;2023-04-30T03:22:56;102289.28;;;10.63;68.79
53647;BME280;39550;52.230;5.194;2023-04-30T03:25:21;102295.34;;;10.64;68.59
53647;BME280;39550;52.230;5.194;2023-04-30T03:27:46;102287.56;;;10.62;68.73
53647;BME280;39550;52.230;5.194;2023-04-30T03:30:12;102300.41;;;10.61;68.59
53647;BME280;39550;52.230;5.194;2023-04-30T03:32:37;102299.50;;;10.60;68.50
53647;BME280;39550;52.230;5.194;2023-04-30T03:35:03;102289.97;;;10.57;68.85
53647;BME280;39550;52.230;5.194;2023-04-30T03:37:28;102295.13;;;10.57;68.96
53647;BME280;39550;52.230;5.194;2023-04-30T03:39:54;102290.78;;;10.55;68.78
53647;BME280;39550;52.230;5.194;2023-04-30T03:42:19;102288.13;;;10.53;68.71
53647;BME280;39550;52.230;5.194;2023-04-30T03:44:45;102289.91;;;10.54;68.35
53647;BME280;39550;52.230;5.194;2023-04-30T03:47:10;102288.13;;;10.53;68.70
53647;BME280;39550;52.230;5.194;2023-04-30T03:49:36;102285.50;;;10.52;68.97
53647;BME280;39550;52.230;5.194;2023-04-30T03:52:01;102283.78;;;10.51;68.90
53647;BME280;39550;52.230;5.194;2023-04-30T03:54:27;102286.28;;;10.49;68.69
53647;BME280;39550;52.230;5.194;2023-04-30T03:56:53;102285.38;;;10.47;68.65
53647;BME280;39550;52.230;5.194;2023-04-30T03:59:19;102286.19;;;10.46;68.81
53647;BME280;39550;52.230;5.194;2023-04-30T04:01:44;102287.00;;;10.45;68.83
53647;BME280;39550;52.230;5.194;2023-04-30T04:04:10;102281.81;;;10.44;68.98
53647;BME280;39550;52.230;5.194;2023-04-30T04:06:35;102280.94;;;10.43;69.10
53647;BME280;39550;52.230;5.194;2023-04-30T04:09:00;102280.94;;;10.43;69.14
53647;BME280;39550;52.230;5.194;2023-04-30T04:11:26;102280.00;;;10.41;69.37
53647;BME280;39550;52.230;5.194;2023-04-30T04:13:51;102280.88;;;10.40;69.05
53647;BME280;39550;52.230;5.194;2023-04-30T04:16:16;102277.38;;;10.39;68.77
53647;BME280;39550;52.230;5.194;2023-04-30T04:18:42;102273.00;;;10.37;68.67
53647;BME280;39550;52.230;5.194;2023-04-30T04:21:07;102272.19;;;10.38;69.12
53647;BME280;39550;52.230;5.194;2023-04-30T04:23:32;102269.44;;;10.33;68.51
53647;BME280;39550;52.230;5.194;2023-04-30T04:25:58;102269.56;;;10.36;69.06
53647;BME280;39550;52.230;5.194;2023-04-30T04:28:24;102274.72;;;10.36;68.87
53647;BME280;39550;52.230;5.194;2023-04-30T04:30:49;102278.13;;;10.35;68.54
53647;BME280;39550;52.230;5.194;2023-04-30T04:33:15;102278.97;;;10.34;69.09
53647;BME280;39550;52.230;5.194;2023-04-30T04:35:41;102279.75;;;10.33;69.02
53647;BME280;39550;52.230;5.194;2023-04-30T04:38:06;102277.91;;;10.29;68.88
53647;BME280;39550;52.230;5.194;2023-04-30T04:40:32;102283.97;;;10.31;68.67
53647;BME280;39550;52.230;5.194;2023-04-30T04:42:59;102271.00;;;10.28;68.71
53647;BME280;39550;52.230;5.194;2023-04-30T04:45:25;102283.09;;;10.31;68.90
53647;BME280;39550;52.230;5.194;2023-04-30T04:47:50;102286.50;;;10.30;68.81
53647;BME280;39550;52.230;5.194;2023-04-30T04:50:16;102287.34;;;10.29;68.98
53647;BME280;39550;52.230;5.194;2023-04-30T04:52:42;102285.59;;;10.28;68.89
53647;BME280;39550;52.230;5.194;2023-04-30T04:55:07;102275.06;;;10.21;68.58
53647;BME280;39550;52.230;5.194;2023-04-30T04:57:33;102288.97;;;10.27;68.62
53647;BME280;39550;52.230;5.194;2023-04-30T04:59:58;102289.81;;;10.26;68.74
53647;BME280;39550;52.230;5.194;2023-04-30T05:02:23;102289.81;;;10.26;68.73
53647;BME280;39550;52.230;5.194;2023-04-30T05:04:49;102284.59;;;10.24;69.01
53647;BME280;39550;52.230;5.194;2023-04-30T05:07:18;102282.69;;;10.18;68.90
53647;BME280;39550;52.230;5.194;2023-04-30T05:09:44;102299.19;;;10.23;68.68
53647;BME280;39550;52.230;5.194;2023-04-30T05:12:11;102293.16;;;10.23;68.64
53647;BME280;39550;52.230;5.194;2023-04-30T05:14:36;102298.28;;;10.23;68.64
53647;BME280;39550;52.230;5.194;2023-04-30T05:17:02;102289.66;;;10.21;68.97
53647;BME280;39550;52.230;5.194;2023-04-30T05:19:27;102292.28;;;10.22;69.00
53647;BME280;39550;52.230;5.194;2023-04-30T05:21:52;102298.28;;;10.23;68.89
53647;BME280;39550;52.230;5.194;2023-04-30T05:24:18;102299.28;;;10.27;68.64
53647;BME280;39550;52.230;5.194;2023-04-30T05:26:43;102298.47;;;10.28;68.49
53647;BME280;39550;52.230;5.194;2023-04-30T05:29:08;102298.41;;;10.26;68.19
53647;BME280;39550;52.230;5.194;2023-04-30T05:31:35;102294.34;;;10.33;68.17
53647;BME280;39550;52.230;5.194;2023-04-30T05:34:01;102311.09;;;10.46;67.66
53647;BME280;39550;52.230;5.194;2023-04-30T05:36:26;102311.06;;;10.44;67.70
53647;BME280;39550;52.230;5.194;2023-04-30T05:38:53;102318.66;;;10.41;67.99
53647;BME280;39550;52.230;5.194;2023-04-30T05:41:18;102314.13;;;10.34;68.09
53647;BME280;39550;52.230;5.194;2023-04-30T05:43:43;102320.13;;;10.33;68.40
53647;BME280;39550;52.230;5.194;2023-04-30T05:46:09;102314.66;;;10.23;68.02
53647;BME280;39550;52.230;5.194;2023-04-30T05:48:34;102328.56;;;10.29;68.27
53647;BME280;39550;52.230;5.194;2023-04-30T05:50:59;102331.97;;;10.28;68.17
53647;BME280;39550;52.230;5.194;2023-04-30T05:53:25;102316.28;;;10.21;68.30
53647;BME280;39550;52.230;5.194;2023-04-30T05:55:50;102325.06;;;10.27;68.49
53647;BME280;39550;52.230;5.194;2023-04-30T05:58:15;102329.34;;;10.26;68.09
53647;BME280;39550;52.230;5.194;2023-04-30T06:00:40;102328.44;;;10.26;68.20
53647;BME280;39550;52.230;5.194;2023-04-30T06:03:06;102326.72;;;10.25;68.56
53647;BME280;39550;52.230;5.194;2023-04-30T06:05:32;102330.09;;;10.23;68.51
53647;BME280;39550;52.230;5.194;2023-04-30T06:07:57;102332.72;;;10.25;68.35
53647;BME280;39550;52.230;5.194;2023-04-30T06:10:22;102334.44;;;10.25;68.72
53647;BME280;39550;52.230;5.194;2023-04-30T06:12:48;102331.88;;;10.25;68.53
53647;BME280;39550;52.230;5.194;2023-04-30T06:15:13;102330.09;;;10.23;68.75
53647;BME280;39550;52.230;5.194;2023-04-30T06:17:39;102338.66;;;10.22;68.72
53647;BME280;39550;52.230;5.194;2023-04-30T06:20:05;102344.66;;;10.23;68.40
53647;BME280;39550;52.230;5.194;2023-04-30T06:22:31;102338.66;;;10.22;68.50
53647;BME280;39550;52.230;5.194;2023-04-30T06:24:57;102335.25;;;10.23;68.51
53647;BME280;39550;52.230;5.194;2023-04-30T06:27:23;102338.03;;;10.30;68.26
53647;BME280;39550;52.230;5.194;2023-04-30T06:29:49;102339.69;;;10.53;67.68
53647;BME280;39550;52.230;5.194;2023-04-30T06:32:14;102338.91;;;10.83;66.50
53647;BME280;39550;52.230;5.194;2023-04-30T06:34:40;102337.84;;;10.77;66.64
53647;BME280;39550;52.230;5.194;2023-04-30T06:37:05;102340.00;;;10.63;67.41
53647;BME280;39550;52.230;5.194;2023-04-30T06:39:31;102332.88;;;10.55;67.16
53647;BME280;39550;52.230;5.194;2023-04-30T06:41:56;102341.75;;;10.64;67.50
53647;BME280;39550;52.230;5.194;2023-04-30T06:44:21;102336.28;;;10.54;67.85
53647;BME280;39550;52.230;5.194;2023-04-30T06:46:47;102342.72;;;10.40;67.95
53647;BME280;39550;52.230;5.194;2023-04-30T06:49:12;102344.25;;;10.35;68.20
53647;BME280;39550;52.230;5.194;2023-04-30T06:51:39;102338.78;;;10.27;68.21
53647;BME280;39550;52.230;5.194;2023-04-30T06:54:05;102345.66;;;10.27;68.73
53647;BME280;39550;52.230;5.194;2023-04-30T06:56:31;102343.81;;;10.22;68.54
53647;BME280;39550;52.230;5.194;2023-04-30T06:58:56;102343.81;;;10.22;68.91
53647;BME280;39550;52.230;5.194;2023-04-30T07:01:22;102346.34;;;10.21;68.70
53647;BME280;39550;52.230;5.194;2023-04-30T07:03:47;102347.19;;;10.21;68.62
53647;BME280;39550;52.230;5.194;2023-04-30T07:06:12;102348.91;;;10.21;68.97
53647;BME280;39550;52.230;5.194;2023-04-30T07:08:38;102351.50;;;10.21;68.76
53647;BME280;39550;52.230;5.194;2023-04-30T07:11:05;102352.34;;;10.21;69.12
53647;BME280;39550;52.230;5.194;2023-04-30T07:13:30;102362.66;;;10.21;68.69
53647;BME280;39550;52.230;5.194;2023-04-30T07:15:55;102354.88;;;10.20;68.58
53647;BME280;39550;52.230;5.194;2023-04-30T07:18:21;102349.72;;;10.20;68.71
53647;BME280;39550;52.230;5.194;2023-04-30T07:20:46;102354.88;;;10.20;68.64
53647;BME280;39550;52.230;5.194;2023-04-30T07:23:11;102349.72;;;10.20;68.72
53647;BME280;39550;52.230;5.194;2023-04-30T07:25:38;102355.78;;;10.20;68.83
53647;BME280;39550;52.230;5.194;2023-04-30T07:28:03;102350.63;;;10.20;68.97
53647;BME280;39550;52.230;5.194;2023-04-30T07:30:28;102353.19;;;10.20;68.93
53647;BME280;39550;52.230;5.194;2023-04-30T07:32:53;102352.34;;;10.21;69.15
53647;BME280;39550;52.230;5.194;2023-04-30T07:35:19;102348.09;;;10.22;69.16
53647;BME280;39550;52.230;5.194;2023-04-30T07:37:44;102357.50;;;10.21;69.17
53647;BME280;39550;52.230;5.194;2023-04-30T07:40:10;102351.53;;;10.22;68.57
53647;BME280;39550;52.230;5.194;2023-04-30T07:42:39;102347.31;;;10.25;68.89
53647;BME280;39550;52.230;5.194;2023-04-30T07:45:06;102346.44;;;10.24;69.13
53647;BME280;39550;52.230;5.194;2023-04-30T07:47:31;102343.91;;;10.26;68.93
53647;BME280;39550;52.230;5.194;2023-04-30T07:49:57;102339.69;;;10.28;68.93
53647;BME280;39550;52.230;5.194;2023-04-30T07:52:22;102343.13;;;10.28;69.23
53647;BME280;39550;52.230;5.194;2023-04-30T07:54:47;102344.03;;;10.29;68.69
53647;BME280;39550;52.230;5.194;2023-04-30T07:57:13;102327.53;;;10.23;69.15
53647;BME280;39550;52.230;5.194;2023-04-30T07:59:38;102350.09;;;10.31;69.02
53647;BME280;39550;52.230;5.194;2023-04-30T08:02:03;102335.50;;;10.31;68.83
53647;BME280;39550;52.230;5.194;2023-04-30T08:04:29;102335.56;;;10.33;69.12
53647;BME280;39550;52.230;5.194;2023-04-30T08:06:55;102336.56;;;10.36;69.05
53647;BME280;39550;52.230;5.194;2023-04-30T08:09:22;102341.72;;;10.36;69.10
53647;BME280;39550;52.230;5.194;2023-04-30T08:11:47;102333.59;;;10.26;69.20
53647;BME280;39550;52.230;5.194;2023-04-30T08:14:13;102335.34;;;10.27;69.88
53647;BME280;39550;52.230;5.194;2023-04-30T08:16:38;102341.50;;;10.30;69.81
53647;BME280;39550;52.230;5.194;2023-04-30T08:19:05;102343.91;;;10.26;69.86
53647;BME280;39550;52.230;5.194;2023-04-30T08:21:31;102342.19;;;10.25;69.75
53647;BME280;39550;52.230;5.194;2023-04-30T08:23:56;102343.91;;;10.26;70.29
53647;BME280;39550;52.230;5.194;2023-04-30T08:26:22;102347.41;;;10.28;70.13
53647;BME280;39550;52.230;5.194;2023-04-30T08:28:49;102345.66;;;10.27;69.86
53647;BME280;39550;52.230;5.194;2023-04-30T08:31:16;102343.22;;;10.31;69.46
53647;BME280;39550;52.230;5.194;2023-04-30T08:33:42;102344.50;;;10.43;69.31
53647;BME280;39550;52.230;5.194;2023-04-30T08:36:08;102341.09;;;10.71;68.65
53647;BME280;39550;52.230;5.194;2023-04-30T08:38:40;102343.09;;;10.80;68.56
53647;BME280;39550;52.230;5.194;2023-04-30T08:41:11;102337.06;;;10.79;68.43
53647;BME280;39550;52.230;5.194;2023-04-30T08:43:38;102341.28;;;10.77;68.83
53647;BME280;39550;52.230;5.194;2023-04-30T08:46:06;102338.72;;;10.77;68.65
53647;BME280;39550;52.230;5.194;2023-04-30T08:48:32;102344.38;;;10.93;68.12
53647;BME280;39550;52.230;5.194;2023-04-30T08:51:01;102339.28;;;10.96;68.32
53647;BME280;39550;52.230;5.194;2023-04-30T08:53:29;102340.84;;;10.90;68.07
53647;BME280;39550;52.230;5.194;2023-04-30T08:55:56;102338.97;;;10.85;68.28
53647;BME280;39550;52.230;5.194;2023-04-30T08:58:22;102339.00;;;10.86;68.20
53647;BME280;39550;52.230;5.194;2023-04-30T09:00:47;102332.25;;;10.90;68.07
53647;BME280;39550;52.230;5.194;2023-04-30T09:03:13;102340.16;;;10.96;68.20
53647;BME280;39550;52.230;5.194;2023-04-30T09:05:40;102331.59;;;10.97;68.04
53647;BME280;39550;52.230;5.194;2023-04-30T09:08:06;102331.75;;;11.03;67.68
53647;BME280;39550;52.230;5.194;2023-04-30T09:10:33;102321.53;;;11.05;67.20
53647;BME280;39550;52.230;5.194;2023-04-30T09:13:05;102327.88;;;11.16;66.99
53647;BME280;39550;52.230;5.194;2023-04-30T09:15:33;102299.16;;;11.05;66.62
53647;BME280;39550;52.230;5.194;2023-04-30T09:18:15;102332.38;;;11.23;66.87
53647;BME280;39550;52.230;5.194;2023-04-30T09:21:01;102326.38;;;11.24;66.92
53647;BME280;39550;52.230;5.194;2023-04-30T09:23:28;102335.13;;;11.30;66.60
53647;BME280;39550;52.230;5.194;2023-04-30T09:25:54;102324.78;;;11.30;66.54
53647;BME280;39550;52.230;5.194;2023-04-30T09:28:21;102327.44;;;11.31;66.63
53647;BME280;39550;52.230;5.194;2023-04-30T09:30:49;102321.34;;;11.29;66.16
53647;BME280;39550;52.230;5.194;2023-04-30T09:33:15;102316.16;;;11.28;66.18
53647;BME280;39550;52.230;5.194;2023-04-30T09:35:41;102314.56;;;11.33;66.16
53647;BME280;39550;52.230;5.194;2023-04-30T09:38:07;102318.06;;;11.35;65.85
53647;BME280;39550;52.230;5.194;2023-04-30T09:40:49;102318.13;;;11.38;65.98
53647;BME280;39550;52.230;5.194;2023-04-30T09:43:16;102301.91;;;11.42;65.43
53647;BME280;39550;52.230;5.194;2023-04-30T09:45:46;102306.25;;;11.43;65.69
53647;BME280;39550;52.230;5.194;2023-04-30T09:48:24;102299.47;;;11.47;65.61
53647;BME280;39550;52.230;5.194;2023-04-30T09:50:50;102302.09;;;11.48;64.59
53647;BME280;39550;52.230;5.194;2023-04-30T09:53:17;102299.94;;;11.64;65.17
53647;BME280;39550;52.230;5.194;2023-04-30T09:55:48;102306.66;;;11.58;64.65
53647;BME280;39550;52.230;5.194;2023-04-30T09:58:15;102300.69;;;11.59;64.40
53647;BME280;39550;52.230;5.194;2023-04-30T10:00:45;102302.50;;;11.64;67.42
53647;BME280;39550;52.230;5.194;2023-04-30T10:03:14;102298.16;;;11.63;65.09
53647;BME280;39550;52.230;5.194;2023-04-30T10:05:44;102296.75;;;11.74;65.20
53647;BME280;39550;52.230;5.194;2023-04-30T10:08:18;102303.69;;;11.76;65.12
53647;BME280;39550;52.230;5.194;2023-04-30T10:10:53;102296.84;;;11.77;65.47
53647;BME280;39550;52.230;5.194;2023-04-30T10:13:20;102300.47;;;11.84;64.92
53647;BME280;39550;52.230;5.194;2023-04-30T10:15:50;102293.72;;;11.90;65.14
53647;BME280;39550;52.230;5.194;2023-04-30T10:18:22;102288.66;;;11.93;65.44
53647;BME280;39550;52.230;5.194;2023-04-30T10:20:52;102295.75;;;12.01;65.90
53647;BME280;39550;52.230;5.194;2023-04-30T10:23:21;102284.66;;;12.05;66.04
53647;BME280;39550;52.230;5.194;2023-04-30T10:25:47;102289.38;;;12.21;65.63
53647;BME280;39550;52.230;5.194;2023-04-30T10:28:13;102283.19;;;12.15;65.28
53647;BME280;39550;52.230;5.194;2023-04-30T10:30:40;102278.94;;;12.18;65.47
53647;BME280;39550;52.230;5.194;2023-04-30T10:35:52;102268.78;;;12.24;65.52
53647;BME280;39550;52.230;5.194;2023-04-30T10:38:23;102270.53;;;12.25;65.71
53647;BME280;39550;52.230;5.194;2023-04-30T10:40:50;102270.66;;;12.32;65.36
53647;BME280;39550;52.230;5.194;2023-04-30T10:43:20;102269.94;;;12.37;65.48
53647;BME280;39550;52.230;5.194;2023-04-30T10:45:47;102265.66;;;12.38;65.19
53647;BME280;39550;52.230;5.194;2023-04-30T10:48:16;102267.25;;;12.33;64.70
53647;BME280;39550;52.230;5.194;2023-04-30T10:50:50;102266.59;;;12.43;64.39
53647;BME280;39550;52.230;5.194;2023-04-30T10:53:18;102249.53;;;12.50;64.81
53647;BME280;39550;52.230;5.194;2023-04-30T10:55:53;102254.66;;;12.48;64.21
53647;BME280;39550;52.230;5.194;2023-04-30T10:58:27;102248.50;;;12.43;64.29
53647;BME280;39550;52.230;5.194;2023-04-30T11:01:07;102247.00;;;12.53;64.26
53647;BME280;39550;52.230;5.194;2023-04-30T11:03:36;102250.53;;;12.56;64.46
53647;BME280;39550;52.230;5.194;2023-04-30T11:06:12;102242.81;;;12.58;63.94
53647;BME280;39550;52.230;5.194;2023-04-30T11:08:44;102246.44;;;12.66;63.95
53647;BME280;39550;52.230;5.194;2023-04-30T11:11:16;102247.69;;;12.84;63.45
53647;BME280;39550;52.230;5.194;2023-04-30T11:13:46;102235.81;;;12.93;64.36
53647;BME280;39550;52.230;5.194;2023-04-30T11:16:14;102226.28;;;12.91;64.00
53647;BME280;39550;52.230;5.194;2023-04-30T11:18:44;102226.47;;;13.00;63.46
53647;BME280;39550;52.230;5.194;2023-04-30T11:21:10;102219.75;;;13.10;63.12
53647;BME280;39550;52.230;5.194;2023-04-30T11:23:41;102218.91;;;13.11;62.48
53647;BME280;39550;52.230;5.194;2023-04-30T11:26:08;102217.09;;;13.07;62.99
53647;BME280;39550;52.230;5.194;2023-04-30T11:28:36;102210.31;;;13.14;63.40
53647;BME280;39550;52.230;5.194;2023-04-30T11:31:02;102213.88;;;13.19;62.50
53647;BME280;39550;52.230;5.194;2023-04-30T11:33:29;102203.69;;;13.26;62.28
53647;BME280;39550;52.230;5.194;2023-04-30T11:35:56;102196.81;;;13.28;61.67
53647;BME280;39550;52.230;5.194;2023-04-30T11:38:48;102196.94;;;13.35;61.45
53647;BME280;39550;52.230;5.194;2023-04-30T11:41:16;102194.41;;;13.36;61.57
53647;BME280;39550;52.230;5.194;2023-04-30T11:43:41;102190.09;;;13.37;61.97
53647;BME280;39550;52.230;5.194;2023-04-30T11:46:12;102189.56;;;13.58;62.15
53647;BME280;39550;52.230;5.194;2023-04-30T11:48:48;102189.78;;;13.70;61.19
53647;BME280;39550;52.230;5.194;2023-04-30T11:51:22;102182.84;;;13.68;61.41
53647;BME280;39550;52.230;5.194;2023-04-30T11:53:52;102178.53;;;13.67;60.56
53647;BME280;39550;52.230;5.194;2023-04-30T11:56:39;102174.22;;;13.69;60.87
53647;BME280;39550;52.230;5.194;2023-04-30T11:59:11;102174.25;;;13.72;60.95
53647;BME280;39550;52.230;5.194;2023-04-30T12:01:37;102176.94;;;13.75;60.39
53647;BME280;39550;52.230;5.194;2023-04-30T12:04:04;102171.03;;;13.85;60.30
53647;BME280;39550;52.230;5.194;2023-04-30T12:06:30;102174.56;;;13.90;60.03
53647;BME280;39550;52.230;5.194;2023-04-30T12:08:57;102169.44;;;13.93;59.00
53647;BME280;39550;52.230;5.194;2023-04-30T12:11:28;102166.06;;;13.99;58.52
53647;BME280;39550;52.230;5.194;2023-04-30T12:13:56;102158.34;;;14.04;58.67
53647;BME280;39550;52.230;5.194;2023-04-30T12:16:26;102163.59;;;14.07;59.23
53647;BME280;39550;52.230;5.194;2023-04-30T12:18:52;102158.47;;;14.13;59.32
53647;BME280;39550;52.230;5.194;2023-04-30T12:21:19;102143.03;;;14.19;58.01
53647;BME280;39550;52.230;5.194;2023-04-30T12:23:46;102150.13;;;14.36;58.69
53647;BME280;39550;52.230;5.194;2023-04-30T12:26:13;102136.50;;;14.49;57.90
53647;BME280;39550;52.230;5.194;2023-04-30T12:28:38;102141.81;;;14.61;57.96
53647;BME280;39550;52.230;5.194;2023-04-30T12:31:04;102146.38;;;14.76;56.43
53647;BME280;39550;52.230;5.194;2023-04-30T12:33:30;102145.66;;;14.91;55.84
53647;BME280;39550;52.230;5.194;2023-04-30T12:35:56;102138.00;;;15.04;56.33
53647;BME280;39550;52.230;5.194;2023-04-30T12:38:23;102135.38;;;15.01;56.27
53647;BME280;39550;52.230;5.194;2023-04-30T12:40:50;102123.28;;;15.03;56.22
53647;BME280;39550;52.230;5.194;2023-04-30T12:43:16;102131.19;;;15.13;55.27
53647;BME280;39550;52.230;5.194;2023-04-30T12:45:47;102132.97;;;15.18;56.05
53647;BME280;39550;52.230;5.194;2023-04-30T12:48:14;102121.78;;;15.29;55.28
53647;BME280;39550;52.230;5.194;2023-04-30T12:50:41;102129.69;;;15.43;54.91
53647;BME280;39550;52.230;5.194;2023-04-30T12:53:07;102126.28;;;15.50;53.20
53647;BME280;39550;52.230;5.194;2023-04-30T12:55:35;102129.81;;;15.59;53.61
53647;BME280;39550;52.230;5.194;2023-04-30T12:58:07;102122.13;;;15.73;53.53
53647;BME280;39550;52.230;5.194;2023-04-30T13:00:49;102110.94;;;15.78;53.78
53647;BME280;39550;52.230;5.194;2023-04-30T13:03:18;102110.88;;;15.77;53.29
53647;BME280;39550;52.230;5.194;2023-04-30T13:05:51;102111.00;;;15.86;52.24
53647;BME280;39550;52.230;5.194;2023-04-30T13:08:28;102109.25;;;15.83;51.93
53647;BME280;39550;52.230;5.194;2023-04-30T13:10:54;102108.47;;;16.02;52.13
53647;BME280;39550;52.230;5.194;2023-04-30T13:13:21;102101.66;;;16.19;51.84